Current | Forecast
Updated: 2:00 PM WIB on March 29, 2017
Observed at Jakarta Soekarno-Hatta, Indonesia
Temperature 90°F
Humidity 66%
Dew Point 77°F
Wind West at 17 mph
Pressure 29.80 in (Steady)
Conditions Scattered Clouds
Visibility 4.3 miles
UV 10 out of 16
Clouds (FEW) : 1900 ft
Scattered Clouds (SCT) : 1900 ft
Yesterday's Maximum 91°F
Yesterday's Minimum 75°F approx.
Yesterday's Cooling Degree Days 18 approx.
Sunrise5:58 AM WIB
Sunset6:02 PM WIB
Moon Rise6:53 AM WIB
Moon Set7:13 PM WIB
Moon PhaseMoon Phase
New Moon
Raw METARMETAR WIII 290700Z 27015KT 7000 FEW019CB SCT019 32/25 Q1009 TEMPO 3000 TSRA RMK CB TO E


Monday
. High: 87° F.
Tuesday
. High: 89° F.
Wednesday
. High: 86° F.
Thursday
. High: 87° F.
Friday
. High: 87° F.
Saturday
. High: 86° F.
Sunday
. High: 87° F.
Monday
. High: 86° F.

Units: English | Metric

Find the Weather for any City, State or Zipcode, or Country:

U.S. State List | Severe Weather | Tropical Storms | Ski Conditions
United States | Canada | Central America | South America | Asia | Europe | Australia | Africa | Islands

Weather Underground

© Copyright 2017
The Weather Company, LLC